Time;durP1;ratioP1;P1;durP2;ratioP2;P2;SDS_P1;SDS_P2;PMS_P1;PMS_P2;Temp;Humidity;BMP_temperature;BMP_pressure;BME280_temperature;BME280_humidity;BME280_pressure;Samples;Min_cycle;Max_cycle;Signal;HPM_P1;HPM_P2
2021/07/13 00:02:03;;;;;;;12.90;10.20;;;;;;;16.85;82.81;101077.47;4899528;29;20408;-79
2021/07/13 00:04:29;;;;;;;11.10;10.00;;;;;;;16.63;82.97;101047.09;4898725;29;20055;-79
2021/07/13 00:06:55;;;;;;;10.82;9.73;;;;;;;16.75;82.66;101066.63;4898800;29;20063;-78
2021/07/13 00:09:22;;;;;;;11.75;10.55;;;;;;;16.67;82.71;101061.78;4898697;29;20068;-81
2021/07/13 00:11:49;;;;;;;11.35;10.15;;;;;;;16.69;83.15;101080.16;4897440;29;20053;-80
2021/07/13 00:14:16;;;;;;;11.32;9.95;;;;;;;16.47;83.28;101055.03;4897724;29;20059;-78
2021/07/13 00:16:42;;;;;;;13.70;11.38;;;;;;;16.60;83.59;101085.00;4898645;29;20084;-77
2021/07/13 00:19:08;;;;;;;12.93;11.27;;;;;;;16.51;83.46;101082.06;4880435;29;20072;-78
2021/07/13 00:21:38;;;;;;;13.82;11.27;;;;;;;16.46;83.73;101083.16;4898051;29;20152;-78
2021/07/13 00:24:06;;;;;;;13.40;11.95;;;;;;;16.43;83.82;101085.09;4898540;29;20066;-78
2021/07/13 00:26:32;;;;;;;12.80;11.55;;;;;;;16.39;84.02;101091.50;4898801;29;20071;-78
2021/07/13 00:28:58;;;;;;;13.15;11.00;;;;;;;16.31;83.68;101079.59;4898566;29;20056;-79
2021/07/13 00:31:24;;;;;;;12.52;10.65;;;;;;;16.02;84.02;101049.63;4898723;29;20051;-78
2021/07/13 00:33:50;;;;;;;12.60;11.40;;;;;;;16.21;84.36;101091.59;4898867;29;20504;-78
2021/07/13 00:36:16;;;;;;;13.40;11.48;;;;;;;16.21;84.22;101094.25;4899104;29;20048;-79
2021/07/13 00:38:42;;;;;;;13.75;11.27;;;;;;;16.05;84.70;101074.94;4898780;29;20048;-77
2021/07/13 00:41:08;;;;;;;12.98;11.52;;;;;;;16.11;84.59;101093.03;4900691;29;20045;-79
2021/07/13 00:43:34;;;;;;;12.65;11.35;;;;;;;16.09;84.85;101102.81;4901338;29;20053;-78
2021/07/13 00:46:01;;;;;;;12.63;11.43;;;;;;;16.04;84.92;101099.56;4899008;29;20417;-80
2021/07/13 00:48:27;;;;;;;13.73;12.30;;;;;;;16.02;85.08;101102.28;4898454;29;20045;-79
2021/07/13 00:50:57;;;;;;;13.13;11.82;;;;;;;15.90;85.00;101090.66;4898035;29;20051;-79
2021/07/13 00:53:24;;;;;;;13.57;11.88;;;;;;;15.91;85.21;101096.78;4898643;29;20432;-79
2021/07/13 00:55:50;;;;;;;14.90;13.30;;;;;;;15.90;85.15;101106.44;4898909;29;20052;-78
2021/07/13 00:58:16;;;;;;;15.32;13.77;;;;;;;15.74;85.57;101092.38;4898718;29;20099;-79
2021/07/13 01:00:42;;;;;;;14.38;12.88;;;;;;;15.86;85.75;101101.44;4901253;29;20048;-79
2021/07/13 01:03:09;;;;;;;14.43;13.02;;;;;;;15.79;85.37;101093.81;4898338;29;20053;-79
2021/07/13 01:05:40;;;;;;;13.43;12.02;;;;;;;15.80;85.80;101103.41;4898374;29;20045;-79
2021/07/13 01:08:35;;;;;;;14.32;12.93;;;;;;;15.83;85.61;101113.84;4898024;29;20187;-78
2021/07/13 01:11:09;;;;;;;14.48;12.93;;;;;;;15.74;85.55;101103.75;4898435;29;20060;-79
2021/07/13 01:13:57;;;;;;;14.70;13.15;;;;;;;15.83;85.83;101119.09;4899005;29;20116;-79
2021/07/13 01:16:46;;;;;;;15.18;12.65;;;;;;;15.83;85.67;101120.84;4898491;29;20051;-80
2021/07/13 01:19:17;;;;;;;13.82;12.43;;;;;;;15.79;85.61;101111.41;4870017;29;20068;-79
2021/07/13 01:21:54;;;;;;;11.95;10.82;;;;;;;15.87;85.50;101114.50;4897713;29;20128;-79
2021/07/13 01:24:31;;;;;;;17.00;14.57;;;;;;;15.86;85.71;101125.13;4898803;29;20044;-79
2021/07/13 01:27:35;;;;;;;15.90;14.27;;;;;;;15.82;85.94;101125.28;4898745;29;20049;-80
2021/07/13 01:30:10;;;;;;;16.98;15.18;;;;;;;15.72;86.48;101125.81;4899338;29;20053;-79
2021/07/13 01:32:40;;;;;;;16.00;14.38;;;;;;;15.62;86.54;101121.03;4913870;29;20100;-77
2021/07/13 01:35:11;;;;;;;16.58;13.85;;;;;;;15.50;86.60;101116.41;4915537;29;20041;-77
2021/07/13 01:37:38;;;;;;;15.57;13.85;;;;;;;15.58;86.81;101118.66;4901082;29;20512;-79
2021/07/13 01:40:07;;;;;;;15.23;13.63;;;;;;;15.58;86.51;101108.97;4898809;29;20481;-79
2021/07/13 01:42:36;;;;;;;15.18;13.57;;;;;;;15.71;86.42;101125.00;4897266;29;20088;-79
2021/07/13 01:45:04;;;;;;;16.67;14.93;;;;;;;15.75;86.34;101134.41;4898009;29;20056;-80
2021/07/13 01:47:33;;;;;;;16.05;14.32;;;;;;;15.75;86.30;101136.19;4896939;29;20060;-80
2021/07/13 01:49:59;;;;;;;16.17;14.48;;;;;;;15.80;86.09;101128.91;4898194;29;20049;-79
2021/07/13 01:52:29;;;;;;;15.13;13.63;;;;;;;15.93;85.59;101131.75;4901107;29;20060;-80
2021/07/13 01:54:56;;;;;;;14.70;13.15;;;;;;;15.78;85.33;101093.91;4900908;29;20107;-80
2021/07/13 01:57:27;;;;;;;14.18;12.77;;;;;;;16.05;84.60;101125.84;4902204;29;20048;-80
2021/07/13 01:59:55;;;;;;;14.43;12.95;;;;;;;16.05;84.68;101122.34;4901904;29;20159;-79
2021/07/13 02:02:24;;;;;;;15.90;14.20;;;;;;;16.10;84.51;101126.44;4901561;29;20465;-80
2021/07/13 02:04:55;;;;;;;16.02;13.07;;;;;;;16.07;84.53;101125.75;4901529;29;20499;-80
2021/07/13 02:07:23;;;;;;;15.38;13.77;;;;;;;16.12;84.35;101129.81;4901155;29;20052;-79
2021/07/13 02:09:49;;;;;;;15.18;13.65;;;;;;;16.09;84.50;101126.53;4901636;29;20060;-80
2021/07/13 02:12:17;;;;;;;16.05;14.32;;;;;;;16.02;84.54;101114.63;4900166;29;20067;-80
2021/07/13 02:14:44;;;;;;;15.75;14.13;;;;;;;15.99;84.66;101126.16;4900953;29;20059;-80
2021/07/13 02:17:11;;;;;;;15.88;13.93;;;;;;;16.03;84.80;101132.09;4884847;29;20553;-79
2021/07/13 02:19:37;;;;;;;16.75;14.45;;;;;;;16.00;84.96;101130.47;4901007;29;20067;-80
2021/07/13 02:22:04;;;;;;;18.63;14.93;;;;;;;15.94;84.88;101113.25;4900217;29;20048;-80
2021/07/13 02:24:30;;;;;;;15.23;12.50;;;;;;;16.05;84.56;101139.00;4894040;29;20123;-80
2021/07/13 02:27:03;;;;;;;14.38;12.88;;;;;;;15.91;84.71;101107.31;4900554;29;20048;-79
2021/07/13 02:29:33;;;;;;;16.30;14.40;;;;;;;16.04;84.70;101128.53;4900290;29;20048;-80
2021/07/13 02:32:07;;;;;;;14.75;13.25;;;;;;;16.02;84.71;101126.00;4900216;29;20060;-80
2021/07/13 02:34:38;;;;;;;17.25;15.55;;;;;;;16.00;85.12;101130.47;4901595;29;20056;-80
2021/07/13 02:37:05;;;;;;;18.38;15.20;;;;;;;15.80;85.48;101102.59;4900610;29;20131;-80
2021/07/13 02:39:33;;;;;;;16.58;14.88;;;;;;;15.91;85.48;101126.56;4901284;29;20049;-79
2021/07/13 02:42:02;;;;;;;16.17;14.57;;;;;;;15.98;85.21;101125.31;4900951;29;20049;-79
2021/07/13 02:44:32;;;;;;;16.00;14.32;;;;;;;15.93;85.33;101124.72;4901869;29;20057;-80
2021/07/13 02:46:59;;;;;;;13.05;11.57;;;;;;;15.96;84.95;101115.78;4902536;29;20053;-80
2021/07/13 02:49:31;;;;;;;14.40;12.90;;;;;;;16.04;84.77;101123.28;4900825;29;20454;-80
2021/07/13 02:51:58;;;;;;;19.30;16.38;;;;;;;15.89;85.29;101109.16;4901792;29;20049;-80
2021/07/13 02:54:29;;;;;;;17.70;15.35;;;;;;;15.96;85.51;101121.06;4900910;29;20052;-80
2021/07/13 02:57:01;;;;;;;19.58;15.70;;;;;;;15.91;86.11;101120.47;4901394;29;20071;-80
2021/07/13 02:59:29;;;;;;;17.13;15.32;;;;;;;15.87;85.83;101114.50;4903897;29;20053;-79
2021/07/13 03:01:55;;;;;;;19.27;15.60;;;;;;;15.79;85.79;101106.16;4906240;29;20140;-78
2021/07/13 03:04:22;;;;;;;17.50;15.70;;;;;;;15.87;85.95;101125.03;4904756;29;20064;-78
2021/07/13 03:06:49;;;;;;;17.98;15.98;;;;;;;15.77;86.05;101108.88;4907142;29;20115;-79
2021/07/13 03:09:16;;;;;;;19.02;15.10;;;;;;;15.79;85.99;101125.41;4904505;29;20462;-80
2021/07/13 03:11:44;;;;;;;17.40;14.68;;;;;;;15.77;86.14;101123.78;4897472;29;20401;-80
2021/07/13 03:14:14;;;;;;;17.30;14.60;;;;;;;15.73;86.44;101128.38;4902327;29;20045;-79
2021/07/13 03:16:41;;;;;;;18.92;15.40;;;;;;;15.67;86.51;101124.28;4901739;29;20063;-80
2021/07/13 03:19:08;;;;;;;16.50;14.80;;;;;;;15.79;85.82;101127.19;4901314;29;20079;-77
2021/07/13 03:21:39;;;;;;;17.38;14.02;;;;;;;15.83;85.74;101126.13;4901207;29;20485;-78
2021/07/13 03:24:07;;;;;;;17.70;15.63;;;;;;;15.79;85.36;101122.78;4900771;29;20143;-80
2021/07/13 03:26:38;;;;;;;17.77;15.98;;;;;;;15.82;85.54;101116.53;4900669;29;20056;-80
2021/07/13 03:29:10;;;;;;;17.45;15.40;;;;;;;15.83;85.17;101107.69;4901204;29;20071;-80
2021/07/13 03:31:37;;;;;;;15.88;14.27;;;;;;;15.73;85.40;101109.94;4900674;29;20048;-80
2021/07/13 03:34:05;;;;;;;16.33;14.52;;;;;;;15.88;85.46;101136.41;4900449;29;20485;-80
2021/07/13 03:36:33;;;;;;;16.60;14.90;;;;;;;15.98;85.03;101135.84;4900706;29;20048;-80
2021/07/13 03:39:00;;;;;;;17.42;14.77;;;;;;;16.05;85.00;101138.13;4900398;29;20147;-80
2021/07/13 03:41:28;;;;;;;17.40;15.15;;;;;;;16.04;84.48;101139.94;4899689;29;20420;-79
2021/07/13 03:43:56;;;;;;;16.15;14.55;;;;;;;16.08;84.02;101141.47;4899895;29;20207;-80
2021/07/13 03:46:24;;;;;;;14.15;12.60;;;;;;;16.06;83.99;101135.41;4900380;29;20056;-79
2021/07/13 03:48:51;;;;;;;17.73;13.38;;;;;;;16.12;83.61;101148.25;4898765;29;20052;-79
2021/07/13 03:51:41;;;;;;;16.25;14.57;;;;;;;16.05;83.35;101144.28;4900067;29;20080;-79
2021/07/13 03:54:09;;;;;;;14.45;12.75;;;;;;;16.02;83.80;101139.16;4897360;29;20040;-80
2021/07/13 03:56:35;;;;;;;15.85;13.82;;;;;;;15.90;84.31;101132.75;4900252;29;20099;-80
2021/07/13 03:59:03;;;;;;;17.00;14.45;;;;;;;15.86;84.84;101146.19;4900497;29;20044;-79
2021/07/13 04:01:29;;;;;;;14.63;13.20;;;;;;;15.82;84.89;101148.13;4903568;29;20045;-80
2021/07/13 04:03:55;;;;;;;16.30;13.48;;;;;;;15.83;84.30;101145.41;4904326;29;20061;-80
2021/07/13 04:06:22;;;;;;;15.23;13.57;;;;;;;15.89;84.22;101140.75;4904674;29;20048;-80
2021/07/13 04:08:48;;;;;;;15.10;13.52;;;;;;;15.87;84.50;101146.09;4904702;29;20072;-80
2021/07/13 04:11:15;;;;;;;18.25;14.20;;;;;;;15.78;84.45;101126.38;4918443;29;20063;-79
2021/07/13 04:13:41;;;;;;;16.00;14.15;;;;;;;15.82;84.18;101135.81;4923264;29;20043;-78
2021/07/13 04:16:08;;;;;;;16.30;14.68;;;;;;;15.99;84.55;101158.59;4922101;29;20048;-78
2021/07/13 04:18:34;;;;;;;15.55;13.95;;;;;;;16.06;83.99;101159.13;4923098;29;20039;-78
2021/07/13 04:21:00;;;;;;;16.33;13.80;;;;;;;16.10;83.92;101159.81;4922067;29;20036;-78
2021/07/13 04:23:27;;;;;;;15.65;13.95;;;;;;;16.15;84.07;101163.06;4917678;29;20048;-80
2021/07/13 04:25:53;;;;;;;13.93;12.35;;;;;;;15.92;83.47;101111.66;4901671;29;20048;-79
2021/07/13 04:28:19;;;;;;;13.85;12.43;;;;;;;16.16;83.14;101146.28;4901896;29;20135;-79
2021/07/13 04:30:45;;;;;;;17.05;14.30;;;;;;;16.11;83.19;101151.84;4911397;29;20044;-79
2021/07/13 04:33:12;;;;;;;15.93;14.02;;;;;;;16.20;83.27;101166.28;4904208;29;20080;-80
2021/07/13 04:35:39;;;;;;;13.68;12.27;;;;;;;16.23;83.21;101167.91;4899984;29;20057;-80
2021/07/13 04:38:05;;;;;;;13.90;12.38;;;;;;;16.24;82.79;101156.44;4898267;29;20108;-79
2021/07/13 04:40:32;;;;;;;16.67;13.77;;;;;;;16.41;82.66;101171.31;4899110;29;20052;-79
2021/07/13 04:42:58;;;;;;;14.27;12.35;;;;;;;16.40;82.01;101172.25;4898649;29;20083;-80
2021/07/13 04:45:24;;;;;;;12.85;11.55;;;;;;;16.34;82.06;101147.06;4899542;29;20489;-80
2021/07/13 04:47:50;;;;;;;12.25;11.00;;;;;;;16.37;81.30;101152.19;4898908;29;20064;-79
2021/07/13 04:50:16;;;;;;;15.30;13.32;;;;;;;16.48;81.91;101177.94;4898602;29;20097;-79
2021/07/13 04:52:42;;;;;;;13.07;11.68;;;;;;;16.38;81.68;101172.34;4897773;29;20044;-79
2021/07/13 04:55:12;;;;;;;12.57;11.05;;;;;;;16.19;82.37;101159.31;4900617;29;20489;-77
2021/07/13 04:57:39;;;;;;;13.35;11.95;;;;;;;16.37;81.96;101173.28;4904471;29;20049;-80
2021/07/13 05:00:07;;;;;;;13.25;11.02;;;;;;;16.42;81.99;101179.13;4903380;29;20060;-79
2021/07/13 05:02:34;;;;;;;12.60;11.30;;;;;;;16.49;81.71;101183.13;4891403;29;20682;-78
2021/07/13 05:05:00;;;;;;;12.27;10.27;;;;;;;16.39;81.75;101173.19;4899558;29;20052;-79
2021/07/13 05:07:27;;;;;;;10.82;9.75;;;;;;;16.43;81.68;101183.47;4898153;29;20048;-78
2021/07/13 05:09:53;;;;;;;12.55;10.90;;;;;;;16.43;81.82;101194.00;4899408;29;20082;-80
2021/07/13 05:12:21;;;;;;;13.02;11.10;;;;;;;16.47;81.25;101198.16;4899296;29;20075;-79
2021/07/13 05:14:47;;;;;;;12.95;10.63;;;;;;;16.51;81.02;101188.31;4899379;29;20049;-80
2021/07/13 05:17:13;;;;;;;13.18;11.75;;;;;;;16.56;81.48;101206.50;4899364;29;20052;-78
2021/07/13 05:19:42;;;;;;;12.85;11.55;;;;;;;16.61;81.04;101200.06;4899688;29;20045;-79
2021/07/13 05:22:10;;;;;;;13.63;11.93;;;;;;;16.49;81.01;101179.66;4914379;29;20052;-78
2021/07/13 05:24:36;;;;;;;13.38;11.32;;;;;;;16.56;81.08;101188.88;4914857;29;20053;-78
2021/07/13 05:27:04;;;;;;;12.30;11.00;;;;;;;16.61;80.16;101196.53;4919409;29;20057;-78
2021/07/13 05:29:32;;;;;;;12.45;10.80;;;;;;;16.60;80.46;101197.47;4921557;29;20473;-79
2021/07/13 05:31:58;;;;;;;11.13;10.02;;;;;;;16.62;80.42;101198.25;4906852;29;20044;-79
2021/07/13 05:34:24;;;;;;;12.30;11.07;;;;;;;16.63;80.66;101213.97;4906064;29;20396;-78
2021/07/13 05:36:50;;;;;;;11.55;9.65;;;;;;;16.54;80.03;101195.19;4904562;29;20242;-79
2021/07/13 05:39:16;;;;;;;11.68;10.10;;;;;;;16.54;80.21;101197.81;4903283;29;20044;-79
2021/07/13 05:41:42;;;;;;;10.75;9.55;;;;;;;16.59;80.04;101204.56;4905097;29;20139;-79
2021/07/13 05:44:09;;;;;;;11.70;10.50;;;;;;;16.72;80.34;101214.41;4907027;29;20049;-78
2021/07/13 05:46:35;;;;;;;11.10;9.95;;;;;;;16.63;79.88;101195.53;4916310;29;20140;-79
2021/07/13 05:49:03;;;;;;;12.32;11.07;;;;;;;16.86;80.34;101222.41;4917302;29;20378;-77
2021/07/13 05:51:29;;;;;;;11.93;10.70;;;;;;;16.93;80.20;101225.56;4913109;29;20390;-77
2021/07/13 05:53:55;;;;;;;11.15;9.68;;;;;;;17.12;79.09;101228.88;4906411;29;20059;-78
2021/07/13 05:56:22;;;;;;;12.00;9.80;;;;;;;17.19;78.37;101233.78;4904692;29;20211;-78
2021/07/13 05:58:48;;;;;;;11.45;8.90;;;;;;;17.17;78.67;101233.03;4904119;29;20048;-79
2021/07/13 06:01:14;;;;;;;12.10;10.77;;;;;;;17.21;78.50;101242.44;4904209;29;20060;-79
2021/07/13 06:03:47;;;;;;;10.88;8.82;;;;;;;17.36;77.45;101233.66;4902775;29;20048;-79
2021/07/13 06:06:15;;;;;;;12.13;9.93;;;;;;;17.29;77.86;101221.75;4904821;29;20513;-80
2021/07/13 06:08:41;;;;;;;11.10;10.07;;;;;;;17.39;76.95;101238.78;4903172;29;20131;-79
2021/07/13 06:11:07;;;;;;;12.00;10.18;;;;;;;17.40;76.88;101231.69;4904058;29;20104;-78
2021/07/13 06:13:33;;;;;;;11.85;10.65;;;;;;;17.31;76.52;101204.06;4903873;29;20048;-79
2021/07/13 06:15:59;;;;;;;11.73;10.23;;;;;;;17.52;76.30;101235.41;4903939;29;20124;-79
2021/07/13 06:18:25;;;;;;;11.60;10.45;;;;;;;17.66;75.99;101242.50;4903683;29;20112;-79
2021/07/13 06:20:51;;;;;;;12.57;9.73;;;;;;;17.84;75.26;101249.31;4903779;29;20136;-79
2021/07/13 06:23:17;;;;;;;11.90;9.32;;;;;;;17.84;75.23;101253.75;4906279;29;20041;-78
2021/07/13 06:25:43;;;;;;;11.55;9.93;;;;;;;17.86;74.54;101238.69;4904573;29;20123;-79
2021/07/13 06:28:11;;;;;;;11.55;9.70;;;;;;;17.95;74.28;101253.97;4904679;29;20049;-79
2021/07/13 06:30:37;;;;;;;13.15;10.20;;;;;;;17.75;74.39;101223.47;4903499;29;20048;-79
2021/07/13 06:33:03;;;;;;;12.90;9.43;;;;;;;18.12;74.19;101263.53;4904934;29;20067;-80
2021/07/13 06:35:30;;;;;;;11.52;10.32;;;;;;;18.06;73.70;101242.75;4905241;29;20056;-79
2021/07/13 06:37:57;;;;;;;11.38;10.20;;;;;;;18.12;73.70;101263.53;4901069;29;20166;-79
2021/07/13 06:40:23;;;;;;;11.95;9.50;;;;;;;18.18;73.27;101265.78;4902060;29;20055;-79
2021/07/13 06:42:49;;;;;;;11.00;9.85;;;;;;;18.45;72.53;101274.75;4902932;29;20489;-79
2021/07/13 06:45:16;;;;;;;11.63;10.52;;;;;;;18.48;72.53;101272.78;4902248;29;20060;-79
2021/07/13 06:47:42;;;;;;;11.60;9.15;;;;;;;18.70;72.27;101282.84;4915064;29;20139;-79
2021/07/13 06:50:09;;;;;;;10.95;9.85;;;;;;;18.62;71.14;101277.19;4901700;29;20051;-79
2021/07/13 06:52:35;;;;;;;11.77;10.45;;;;;;;18.48;71.90;101270.13;4901713;29;20041;-79
2021/07/13 06:55:03;;;;;;;10.77;9.68;;;;;;;18.70;72.12;101289.91;4902262;29;20445;-79
2021/07/13 06:57:29;;;;;;;11.27;10.05;;;;;;;18.50;72.40;101267.38;4901780;29;20513;-79
2021/07/13 06:59:59;;;;;;;11.32;10.13;;;;;;;18.79;71.81;101294.63;4900587;29;20056;-78
2021/07/13 07:02:29;;;;;;;12.82;10.40;;;;;;;18.90;71.45;101295.75;4902244;29;20048;-79
2021/07/13 07:04:56;;;;;;;10.70;9.60;;;;;;;18.88;71.03;101294.06;4904409;29;20056;-80
2021/07/13 07:07:22;;;;;;;12.13;10.88;;;;;;;18.88;71.18;101299.34;4906117;29;20041;-79
2021/07/13 07:09:48;;;;;;;12.30;10.93;;;;;;;18.69;72.00;101297.00;4908866;29;20096;-79
2021/07/13 07:12:14;;;;;;;12.45;11.20;;;;;;;18.23;72.46;101294.56;4904192;29;20053;-78
2021/07/13 07:14:40;;;;;;;12.00;10.70;;;;;;;18.30;72.81;101298.53;4904052;29;20052;-79
2021/07/13 07:17:08;;;;;;;10.70;9.57;;;;;;;18.59;72.04;101310.91;4901632;29;20084;-79
2021/07/13 07:19:34;;;;;;;12.45;10.32;;;;;;;18.40;72.39;101312.88;4901196;29;20053;-77
2021/07/13 07:22:02;;;;;;;10.30;9.30;;;;;;;18.72;71.58;101314.47;4901251;29;20040;-79
2021/07/13 07:24:31;;;;;;;11.52;10.10;;;;;;;18.76;70.96;101304.56;4916526;29;20096;-78
2021/07/13 07:27:06;;;;;;;11.02;9.80;;;;;;;19.09;70.39;101316.59;4903355;29;20137;-78
2021/07/13 07:29:33;;;;;;;10.68;9.10;;;;;;;19.35;69.44;101317.56;4902949;29;20071;-78
2021/07/13 07:31:59;;;;;;;10.57;9.05;;;;;;;19.41;69.28;101313.66;4901616;29;20404;-78
2021/07/13 07:34:26;;;;;;;10.52;9.27;;;;;;;19.68;68.59;101314.47;4902856;29;20511;-78
2021/07/13 07:36:53;;;;;;;10.07;9.18;;;;;;;19.84;68.01;101313.50;4901033;29;20051;-77
2021/07/13 07:39:19;;;;;;;11.35;9.57;;;;;;;19.85;68.11;101312.53;4891432;29;20446;-80
2021/07/13 07:41:46;;;;;;;10.07;9.07;;;;;;;19.78;68.01;101309.41;4899517;29;20092;-78
2021/07/13 07:44:13;;;;;;;10.07;9.00;;;;;;;19.49;68.41;101312.22;4885458;29;20049;-78
2021/07/13 07:46:42;;;;;;;10.52;8.55;;;;;;;19.27;69.08;101307.47;4888011;29;20103;-78
2021/07/13 07:49:24;;;;;;;;;;;;;;;19.10;69.80;101318.31;4903786;29;20048;-78
2021/07/13 07:51:50;;;;;;;9.93;8.50;;;;;;;19.01;70.35;101317.94;4904704;29;20017;-79
2021/07/13 07:54:17;;;;;;;9.88;8.80;;;;;;;18.79;70.52;101302.56;4900492;29;20560;-79
2021/07/13 07:56:43;;;;;;;9.55;8.30;;;;;;;18.76;71.19;101318.66;4902346;29;20044;-82
2021/07/13 07:59:12;;;;;;;10.15;8.63;;;;;;;18.74;70.64;101315.25;4903383;29;20052;-81
2021/07/13 08:01:38;;;;;;;9.75;8.80;;;;;;;18.59;71.05;101306.47;4902559;29;20141;-79
2021/07/13 08:04:05;;;;;;;10.20;8.43;;;;;;;18.79;71.06;101325.53;4902179;29;20048;-78
2021/07/13 08:06:31;;;;;;;8.60;7.80;;;;;;;18.87;70.57;101331.16;4898353;29;20552;-78
2021/07/13 08:08:59;;;;;;;11.52;8.55;;;;;;;18.92;70.31;101328.28;4899803;29;20044;-76
2021/07/13 08:11:39;;;;;;;9.25;8.25;;;;;;;19.14;69.38;101320.66;4903712;29;20147;-76
2021/07/13 08:14:08;;;;;;;8.95;8.02;;;;;;;19.46;68.42;101332.75;4896246;29;20104;-78
2021/07/13 08:16:37;;;;;;;10.18;8.30;;;;;;;19.52;67.08;101316.47;4899245;29;20056;-77
2021/07/13 08:19:06;;;;;;;9.15;8.23;;;;;;;19.64;67.05;101323.59;4899252;29;20048;-75
2021/07/13 08:21:34;;;;;;;9.00;8.10;;;;;;;19.66;66.41;101319.06;4899066;29;20493;-76
2021/07/13 08:24:00;;;;;;;8.27;7.35;;;;;;;19.74;66.81;101305.28;4899337;29;20084;-75
2021/07/13 08:26:27;;;;;;;8.38;7.53;;;;;;;19.87;66.06;101301.81;4899131;29;20088;-76
2021/07/13 08:28:53;;;;;;;8.60;7.43;;;;;;;20.16;65.46;101321.03;4899119;29;20087;-76
2021/07/13 08:31:20;;;;;;;10.55;8.10;;;;;;;20.11;65.40;101317.84;4899119;29;20128;-77
2021/07/13 08:33:46;;;;;;;8.63;7.50;;;;;;;20.26;65.40;101324.75;4913920;29;20049;-77
2021/07/13 08:36:13;;;;;;;7.75;6.97;;;;;;;20.19;64.45;101320.84;4907093;29;20108;-77
2021/07/13 08:38:39;;;;;;;8.43;7.55;;;;;;;20.42;64.12;101305.97;4899084;29;20048;-77
2021/07/13 08:41:05;;;;;;;9.05;7.10;;;;;;;20.36;64.46;101324.09;4899584;29;20533;-76
2021/07/13 08:43:32;;;;;;;7.88;7.13;;;;;;;20.67;63.71;101322.78;4902915;29;20052;-79
2021/07/13 08:45:58;;;;;;;7.63;6.90;;;;;;;20.79;63.30;101327.25;4901839;29;20071;-78
2021/07/13 08:48:27;;;;;;;8.75;7.85;;;;;;;20.74;62.74;101332.06;4900898;29;20059;-77
2021/07/13 08:50:55;;;;;;;8.30;7.32;;;;;;;20.70;62.81;101327.91;4898834;29;20067;-76
2021/07/13 08:53:22;;;;;;;9.15;8.10;;;;;;;20.55;63.67;101319.19;4899394;29;20045;-76
2021/07/13 08:55:49;;;;;;;9.02;7.70;;;;;;;21.02;62.29;101322.09;4900418;29;20049;-77
2021/07/13 08:58:15;;;;;;;11.05;7.95;;;;;;;21.00;62.77;101326.66;4900119;29;20053;-78
2021/07/13 09:00:42;;;;;;;9.27;8.38;;;;;;;21.26;61.22;101329.22;4899803;29;20060;-77
2021/07/13 09:03:14;;;;;;;9.52;7.57;;;;;;;21.17;62.35;101316.66;4899344;29;20045;-78
2021/07/13 09:05:50;;;;;;;9.60;8.57;;;;;;;21.31;61.54;101323.56;4900169;29;20052;-78
2021/07/13 09:08:16;;;;;;;9.05;8.25;;;;;;;21.41;61.92;101327.22;4916889;29;20060;-78
2021/07/13 09:11:11;;;;;;;9.02;8.13;;;;;;;21.48;61.29;101323.16;4907423;29;20067;-79
2021/07/13 09:13:46;;;;;;;9.75;8.85;;;;;;;21.37;61.30;101308.06;4898882;29;20481;-78
2021/07/13 09:16:20;;;;;;;9.95;8.95;;;;;;;21.41;60.72;101320.13;4899850;29;20087;-78
2021/07/13 09:18:50;;;;;;;10.05;9.00;;;;;;;21.85;60.49;101312.47;4900814;29;20080;-77
2021/07/13 09:21:24;;;;;;;9.65;8.75;;;;;;;21.69;59.90;101323.41;4900563;29;20064;-77
2021/07/13 09:24:17;;;;;;;8.38;7.63;;;;;;;21.90;59.63;101320.94;4901997;29;20390;-76
2021/07/13 09:26:55;;;;;;;8.48;7.57;;;;;;;21.83;58.68;101314.38;4898971;29;20504;-77
2021/07/13 09:29:30;;;;;;;8.98;8.07;;;;;;;22.20;58.21;101319.53;4898732;29;20076;-78
2021/07/13 09:32:26;;;;;;;8.88;7.45;;;;;;;22.17;57.55;101314.44;4899253;29;20136;-77
2021/07/13 09:35:01;;;;;;;9.63;7.53;;;;;;;21.95;58.71;101317.91;4912135;29;20049;-78
2021/07/13 09:37:33;;;;;;;8.43;7.45;;;;;;;21.87;59.21;101315.84;4897597;29;20052;-78
2021/07/13 09:40:10;;;;;;;8.05;7.28;;;;;;;21.73;59.87;101313.41;4898625;29;20060;-78
2021/07/13 09:42:43;;;;;;;8.48;7.68;;;;;;;21.63;59.27;101330.97;4898132;29;20469;-78
2021/07/13 09:45:24;;;;;;;8.55;7.65;;;;;;;21.32;59.89;101317.31;4898596;29;20057;-78
2021/07/13 09:47:53;;;;;;;8.85;7.47;;;;;;;21.36;60.04;101306.34;4898005;29;20071;-77
2021/07/13 09:50:30;;;;;;;8.43;7.63;;;;;;;21.43;59.98;101314.69;4897804;29;20136;-76
2021/07/13 09:52:57;;;;;;;7.78;7.00;;;;;;;21.46;60.35;101311.81;4898644;29;20052;-76
2021/07/13 09:55:25;;;;;;;7.95;7.15;;;;;;;21.61;59.34;101298.41;4898029;29;20457;-78
2021/07/13 09:57:50;;;;;;;6.13;5.53;;;;;;;22.08;57.98;101312.50;4897214;29;20087;-77
2021/07/13 10:00:17;;;;;;;6.32;5.72;;;;;;;21.79;58.41;101309.41;4897821;29;20143;-78
2021/07/13 10:02:44;;;;;;;6.07;5.47;;;;;;;21.95;58.10;101307.28;4898910;29;20048;-78
2021/07/13 10:05:10;;;;;;;7.00;4.88;;;;;;;22.13;57.86;101320.13;4899693;29;20167;-78
2021/07/13 10:07:37;;;;;;;5.25;4.75;;;;;;;22.26;56.25;101310.22;4898371;29;20057;-78
2021/07/13 10:10:11;;;;;;;5.50;4.72;;;;;;;22.68;54.74;101294.53;4898667;29;20064;-78
2021/07/13 10:12:37;;;;;;;5.60;4.70;;;;;;;23.02;53.98;101294.44;4899006;29;20044;-78
2021/07/13 10:15:04;;;;;;;7.18;5.25;;;;;;;22.83;54.85;101292.44;4902046;29;20044;-77
2021/07/13 10:17:31;;;;;;;7.35;5.25;;;;;;;22.72;55.00;101303.09;4902286;29;20048;-78
2021/07/13 10:20:04;;;;;;;7.80;4.88;;;;;;;22.73;55.65;101306.59;4902134;29;20465;-77
2021/07/13 10:22:34;;;;;;;5.40;4.90;;;;;;;22.49;55.55;101308.44;4902939;29;20084;-76
2021/07/13 10:25:01;;;;;;;8.65;5.70;;;;;;;22.35;55.97;101309.50;4902073;29;20053;-78
2021/07/13 10:27:32;;;;;;;5.68;4.40;;;;;;;22.33;55.21;101311.44;4916163;29;20052;-76
2021/07/13 10:30:03;;;;;;;5.13;4.60;;;;;;;22.18;55.30;101291.34;4892074;29;20064;-74
2021/07/13 10:32:32;;;;;;;5.35;4.85;;;;;;;22.52;55.15;101312.66;4903015;29;20045;-77
2021/07/13 10:35:02;;;;;;;5.30;4.70;;;;;;;22.81;54.70;101306.84;4901065;29;20049;-77
2021/07/13 10:37:32;;;;;;;5.90;4.68;;;;;;;23.16;53.57;101305.78;4900865;29;20060;-78
2021/07/13 10:40:09;;;;;;;5.60;4.65;;;;;;;23.01;53.04;101305.22;4901350;29;20145;-78
2021/07/13 10:42:44;;;;;;;6.88;4.85;;;;;;;22.89;53.64;101307.06;4902591;29;20065;-76
2021/07/13 10:45:14;;;;;;;5.78;4.38;;;;;;;22.95;53.12;101303.91;4902348;29;20053;-78
2021/07/13 10:48:03;;;;;;;5.03;4.53;;;;;;;22.79;53.73;101301.66;4904334;29;20056;-80
2021/07/13 10:50:29;;;;;;;5.38;4.88;;;;;;;22.51;54.97;101305.69;4902340;29;20056;-78
2021/07/13 10:53:05;;;;;;;6.72;5.03;;;;;;;22.87;54.39;101303.69;4906293;29;20052;-78
2021/07/13 10:55:31;;;;;;;8.15;5.07;;;;;;;22.99;54.28;101308.00;4904406;29;20076;-76
2021/07/13 10:58:09;;;;;;;6.30;4.88;;;;;;;23.40;53.87;101310.06;4901921;29;20045;-76
2021/07/13 11:00:48;;;;;;;9.27;5.18;;;;;;;23.66;52.89;101300.75;4901958;29;20095;-76
2021/07/13 11:03:29;;;;;;;5.68;5.18;;;;;;;23.50;53.21;101301.19;4901827;29;20481;-77
2021/07/13 11:06:07;;;;;;;6.03;5.43;;;;;;;23.42;53.55;101300.97;4901302;29;20435;-76
2021/07/13 11:08:40;;;;;;;5.85;5.32;;;;;;;23.43;54.00;101304.50;4885931;29;20048;-78
2021/07/13 11:11:18;;;;;;;5.15;4.65;;;;;;;23.40;53.90;101302.94;4905219;29;20064;-76
2021/07/13 11:13:50;;;;;;;6.28;5.35;;;;;;;23.46;53.12;101305.09;4888019;29;20556;-78
2021/07/13 11:16:26;;;;;;;6.10;4.93;;;;;;;23.63;52.58;101310.81;4903350;29;20080;-78
2021/07/13 11:18:53;;;;;;;7.22;5.40;;;;;;;23.73;52.94;101318.88;4901929;29;20513;-77
2021/07/13 11:21:23;;;;;;;6.70;5.35;;;;;;;23.63;52.72;101322.34;4903324;29;20048;-78
2021/07/13 11:23:55;;;;;;;5.32;4.65;;;;;;;23.92;51.88;101296.84;4908165;29;20052;-77